createdAt,value
2022-08-02T02:01:56.181Z,17.60
2022-08-02T03:04:04.170Z,17.40
2022-08-02T04:52:50.419Z,16.40
2022-08-02T04:55:22.983Z,16.40
2022-08-02T04:57:57.802Z,16.40
2022-08-02T05:00:26.920Z,16.40
2022-08-02T05:02:58.360Z,16.30
2022-08-02T05:05:27.091Z,16.40
2022-08-02T05:07:57.080Z,16.40
2022-08-02T05:10:26.766Z,16.50
2022-08-02T05:12:55.052Z,16.50
2022-08-02T05:15:23.377Z,16.50
2022-08-02T05:17:51.825Z,16.60
2022-08-02T05:20:25.886Z,16.60
2022-08-02T05:22:54.216Z,16.60
2022-08-02T05:25:22.691Z,16.70
2022-08-02T05:27:54.118Z,16.70
2022-08-02T05:30:24.189Z,16.80
2022-08-02T05:32:54.019Z,16.90
2022-08-02T05:35:30.307Z,17.00
2022-08-02T05:37:58.499Z,17.10
2022-08-02T05:40:54.977Z,17.10
2022-08-02T05:43:25.449Z,17.20
2022-08-02T05:45:55.131Z,17.20
2022-08-02T05:48:27.687Z,17.20
2022-08-02T05:51:08.147Z,17.30
2022-08-02T05:53:40.057Z,17.30
2022-08-02T05:56:19.565Z,17.30
2022-08-02T05:58:58.367Z,17.30
2022-08-02T06:01:33.302Z,17.40
2022-08-02T06:04:01.997Z,17.40
2022-08-02T06:06:31.171Z,17.50
2022-08-02T06:09:06.940Z,17.60
2022-08-02T06:11:39.474Z,17.70
2022-08-02T06:14:09.806Z,17.80
2022-08-02T06:16:42.323Z,17.80
2022-08-02T06:19:15.830Z,18.00
2022-08-02T06:22:31.246Z,18.10
2022-08-02T06:24:33.234Z,18.20
2022-08-02T06:27:01.823Z,18.30
2022-08-02T06:29:36.993Z,18.40
2022-08-02T06:32:09.159Z,18.60
2022-08-02T06:34:40.950Z,18.80
2022-08-02T06:37:18.917Z,19.00
2022-08-02T06:39:53.278Z,19.20
2022-08-02T06:42:24.149Z,19.50
2022-08-02T06:45:05.267Z,19.80
2022-08-02T06:47:33.762Z,20.20
2022-08-02T06:50:05.654Z,20.40
2022-08-02T06:52:35.843Z,20.50
2022-08-02T06:55:05.457Z,20.50
2022-08-02T06:57:33.854Z,20.60
2022-08-02T07:00:07.346Z,20.70
2022-08-02T07:02:36.341Z,20.70
2022-08-02T07:05:30.266Z,20.80
2022-08-02T07:08:02.253Z,20.80
2022-08-02T07:10:30.834Z,20.80
2022-08-02T07:13:00.019Z,20.80
2022-08-02T07:15:30.068Z,20.80
2022-08-02T07:17:58.422Z,20.90
2022-08-02T07:20:30.774Z,21.00
2022-08-02T07:22:59.313Z,21.10
2022-08-02T07:26:01.812Z,21.20
2022-08-02T07:28:23.701Z,21.30
2022-08-02T07:30:55.851Z,21.40
2022-08-02T07:33:38.104Z,21.50
2022-08-02T07:36:16.876Z,21.70
2022-08-02T07:38:51.270Z,21.80
2022-08-02T07:41:30.204Z,21.90
2022-08-02T07:44:22.487Z,22.00
2022-08-02T07:47:05.527Z,22.20
2022-08-02T07:49:39.017Z,22.30
2022-08-02T07:52:07.314Z,22.40
2022-08-02T07:54:36.853Z,22.60
2022-08-02T07:57:05.486Z,22.80
2022-08-02T07:59:36.691Z,22.90
2022-08-02T08:02:09.165Z,23.00
2022-08-02T08:04:38.957Z,23.00
2022-08-02T08:07:17.389Z,23.10
2022-08-02T08:09:47.779Z,23.20
2022-08-02T08:12:16.832Z,23.20
2022-08-02T08:14:54.261Z,23.30
2022-08-02T08:17:27.142Z,23.40
2022-08-02T08:19:55.597Z,23.50
2022-08-02T08:22:52.745Z,23.60
2022-08-02T08:25:30.309Z,23.60
2022-08-02T08:28:06.148Z,23.50
2022-08-02T08:30:49.819Z,23.60
2022-08-02T08:33:19.735Z,23.70
2022-08-02T08:36:02.437Z,23.80
2022-08-02T08:38:30.958Z,23.90
2022-08-02T08:41:02.274Z,24.20
2022-08-02T08:43:34.218Z,24.30
2022-08-02T08:46:07.630Z,24.60
2022-08-02T08:48:37.442Z,24.80
2022-08-02T08:51:08.497Z,25.00
2022-08-02T08:53:42.033Z,25.20
2022-08-02T08:56:21.614Z,25.40
2022-08-02T08:58:49.961Z,25.50
2022-08-02T09:01:22.727Z,25.70
2022-08-02T09:03:55.952Z,25.90
2022-08-02T09:06:29.395Z,26.00
2022-08-02T09:09:02.390Z,25.90
2022-08-02T09:11:30.612Z,25.90
2022-08-02T09:13:59.957Z,25.80
2022-08-02T09:16:35.835Z,25.80
2022-08-02T09:19:18.840Z,25.80
2022-08-02T09:21:47.235Z,25.80
2022-08-02T09:24:26.697Z,26.00
2022-08-02T09:27:00.361Z,26.30
2022-08-02T09:29:28.504Z,26.60
2022-08-02T09:32:04.679Z,26.90
2022-08-02T09:37:34.326Z,27.10
2022-08-02T09:40:03.725Z,27.20
2022-08-02T09:42:32.024Z,27.20
2022-08-02T09:45:15.492Z,27.20
2022-08-02T09:47:49.236Z,27.30
2022-08-02T09:50:18.099Z,27.20
2022-08-02T09:52:47.810Z,27.10
2022-08-02T09:55:16.373Z,27.00
2022-08-02T09:57:50.343Z,26.90
2022-08-02T10:00:31.583Z,26.70
2022-08-02T10:03:14.905Z,26.60
2022-08-02T10:05:56.254Z,26.70
2022-08-02T10:08:32.920Z,26.90
2022-08-02T10:11:04.443Z,26.90
2022-08-02T10:13:38.663Z,27.10
2022-08-02T10:16:07.399Z,27.10
2022-08-02T10:18:39.374Z,27.10
2022-08-02T10:21:09.068Z,27.10
2022-08-02T10:23:42.122Z,27.10
2022-08-02T10:26:14.319Z,27.00
2022-08-02T10:28:42.578Z,27.00
2022-08-02T10:31:10.694Z,27.10
2022-08-02T10:33:47.426Z,27.20
2022-08-02T10:36:18.481Z,27.20
2022-08-02T10:38:48.174Z,27.30
2022-08-02T10:41:16.767Z,27.40
2022-08-02T10:43:50.387Z,27.60
2022-08-02T10:46:33.284Z,27.80
2022-08-02T10:49:36.658Z,27.90
2022-08-02T10:52:12.636Z,28.00
2022-08-02T10:54:48.235Z,28.00
2022-08-02T10:57:19.355Z,28.00
2022-08-02T10:59:48.106Z,28.10
2022-08-02T11:02:16.971Z,28.20
2022-08-02T11:05:05.755Z,28.20
2022-08-02T11:07:34.754Z,28.00
2022-08-02T11:10:39.555Z,27.90
2022-08-02T11:13:14.155Z,27.90
2022-08-02T11:15:59.658Z,28.00
2022-08-02T11:19:01.721Z,28.30
2022-08-02T11:21:30.051Z,28.60
2022-08-02T11:23:58.499Z,28.90
2022-08-02T11:26:56.301Z,28.90
2022-08-02T11:29:32.470Z,29.00
2022-08-02T11:32:15.962Z,29.10
2022-08-02T11:34:44.456Z,29.20
2022-08-02T11:37:16.321Z,29.30
2022-08-02T11:39:51.614Z,29.30
2022-08-02T11:42:21.733Z,29.20
2022-08-02T11:44:53.236Z,29.00
2022-08-02T11:47:21.556Z,28.90
2022-08-02T11:49:49.754Z,29.10
2022-08-02T11:52:22.216Z,29.10
2022-08-02T11:54:52.830Z,29.20
2022-08-02T11:57:23.163Z,29.10
2022-08-02T11:59:52.594Z,29.00
2022-08-02T12:02:21.236Z,29.00
2022-08-02T12:04:58.541Z,29.00
2022-08-02T12:07:34.678Z,29.10
2022-08-02T12:10:05.107Z,29.30
2022-08-02T12:12:37.201Z,29.40
2022-08-02T12:15:07.686Z,29.60
2022-08-02T12:18:07.214Z,29.70
2022-08-02T12:20:38.662Z,29.80
2022-08-02T12:23:15.399Z,30.10
2022-08-02T12:25:46.510Z,30.00
2022-08-02T12:28:18.202Z,29.80
2022-08-02T12:30:58.089Z,29.50
2022-08-02T12:33:31.300Z,29.30
2022-08-02T12:35:59.569Z,29.30
2022-08-02T12:38:28.232Z,29.10
2022-08-02T12:40:56.647Z,29.00
2022-08-02T12:43:31.649Z,29.10
2022-08-02T12:46:02.533Z,29.10
2022-08-02T12:48:38.167Z,29.10
2022-08-02T12:51:21.073Z,29.20
2022-08-02T12:53:59.978Z,29.50
2022-08-02T12:56:30.071Z,29.90
2022-08-02T12:59:03.342Z,30.10
2022-08-02T13:01:32.102Z,30.40
2022-08-02T13:04:09.846Z,30.70
2022-08-02T13:06:45.051Z,30.60
2022-08-02T13:09:15.380Z,30.40
2022-08-02T13:11:44.108Z,30.20
2022-08-02T13:14:15.558Z,30.00
2022-08-02T13:16:49.821Z,30.10
2022-08-02T13:19:22.730Z,30.30
2022-08-02T13:22:04.073Z,30.30
2022-08-02T13:24:40.098Z,30.20
2022-08-02T13:27:26.136Z,30.10
2022-08-02T13:30:03.407Z,30.10
2022-08-02T13:32:36.019Z,30.10
2022-08-02T13:35:09.206Z,30.30
2022-08-02T13:37:48.345Z,30.50
2022-08-02T13:40:22.073Z,30.70
2022-08-02T13:42:52.389Z,31.00
2022-08-02T13:45:26.026Z,31.40
2022-08-02T13:48:03.812Z,31.50
2022-08-02T13:50:33.458Z,31.70
2022-08-02T13:53:03.422Z,31.80
2022-08-02T13:55:43.527Z,31.90
2022-08-02T13:58:22.204Z,32.00
2022-08-02T14:00:57.753Z,32.00
2022-08-02T14:03:27.319Z,32.10
2022-08-02T14:06:19.650Z,32.00
2022-08-02T14:08:47.759Z,31.70
2022-08-02T14:11:16.083Z,31.40
2022-08-02T14:13:45.964Z,31.10
2022-08-02T14:16:15.687Z,31.00
2022-08-02T14:18:43.939Z,31.00
2022-08-02T14:21:12.422Z,31.10
2022-08-02T14:23:50.151Z,31.10
2022-08-02T14:26:26.805Z,31.10
2022-08-02T14:29:02.142Z,31.10
2022-08-02T14:31:31.738Z,31.00
2022-08-02T14:34:06.624Z,31.00
2022-08-02T14:36:34.911Z,31.00
2022-08-02T14:39:03.143Z,31.00
2022-08-02T14:41:34.060Z,31.10
2022-08-02T14:44:23.090Z,31.10
2022-08-02T14:46:57.074Z,31.10
2022-08-02T14:49:30.909Z,31.00
2022-08-02T14:51:59.210Z,30.80
2022-08-02T14:54:30.954Z,30.70
2022-08-02T14:57:03.416Z,30.60
2022-08-02T14:59:31.648Z,30.60
2022-08-02T15:02:07.142Z,30.70
2022-08-02T15:04:44.486Z,30.80
2022-08-02T15:07:16.126Z,30.70
2022-08-02T15:09:44.453Z,30.80
2022-08-02T15:12:13.055Z,30.80
2022-08-02T15:14:43.052Z,30.80
2022-08-02T15:17:14.829Z,30.80
2022-08-02T15:19:58.852Z,30.80
2022-08-02T15:22:30.294Z,30.70
2022-08-02T15:25:02.039Z,30.60
2022-08-02T15:27:30.201Z,30.40
2022-08-02T15:30:04.372Z,30.30
2022-08-02T15:32:40.502Z,30.20
2022-08-02T15:35:21.943Z,30.10
2022-08-02T15:37:50.664Z,30.00
2022-08-02T15:40:21.983Z,30.00
2022-08-02T15:42:53.769Z,29.90
2022-08-02T15:45:28.156Z,29.90
2022-08-02T15:47:57.915Z,29.80
2022-08-02T15:50:26.294Z,29.80
2022-08-02T15:52:54.534Z,29.70
2022-08-02T15:55:24.096Z,29.60
2022-08-02T15:57:56.582Z,29.60
2022-08-02T16:00:40.405Z,29.60
2022-08-02T16:03:17.704Z,29.60
2022-08-02T16:05:47.340Z,29.50
2022-08-02T16:08:16.085Z,29.40
2022-08-02T16:10:45.643Z,29.40
2022-08-02T16:13:32.246Z,29.30
2022-08-02T16:16:14.384Z,29.20
2022-08-02T16:18:51.555Z,29.10
2022-08-02T16:21:38.042Z,29.00
2022-08-02T16:24:12.356Z,28.90
2022-08-02T16:26:42.434Z,29.00
2022-08-02T16:29:12.622Z,29.00
2022-08-02T16:31:43.015Z,28.90
2022-08-02T16:34:18.067Z,28.80
2022-08-02T16:36:46.673Z,28.70
2022-08-02T16:39:14.889Z,28.60
2022-08-02T16:41:50.689Z,28.50
2022-08-02T16:44:34.531Z,28.40
2022-08-02T16:47:02.799Z,28.30
2022-08-02T16:50:05.421Z,28.30
2022-08-02T16:52:33.701Z,28.20
2022-08-02T16:55:07.201Z,28.10
2022-08-02T16:57:50.006Z,28.20
2022-08-02T17:00:18.718Z,28.20
2022-08-02T17:02:48.709Z,28.20
2022-08-02T17:05:37.883Z,28.20
2022-08-02T17:08:17.244Z,28.10
2022-08-02T17:10:49.661Z,28.00
2022-08-02T17:13:21.098Z,28.00
2022-08-02T17:16:15.752Z,28.00
2022-08-02T17:18:49.450Z,28.00
2022-08-02T17:21:19.322Z,27.90
2022-08-02T17:24:05.793Z,27.80
2022-08-02T17:26:36.973Z,27.70
2022-08-02T17:29:16.319Z,27.60
2022-08-02T17:32:05.816Z,27.50
2022-08-02T17:34:35.872Z,27.50
2022-08-02T17:37:06.401Z,27.60
2022-08-02T17:39:44.092Z,27.70
2022-08-02T17:42:25.168Z,27.70
2022-08-02T17:45:06.867Z,27.80
2022-08-02T17:48:04.912Z,27.70
2022-08-02T17:50:40.937Z,27.70
2022-08-02T17:53:20.545Z,27.60
2022-08-02T17:55:50.906Z,27.60
2022-08-02T17:58:19.465Z,27.50
2022-08-02T18:00:49.443Z,27.30
2022-08-02T18:03:20.711Z,27.10
2022-08-02T18:05:55.188Z,26.80
2022-08-02T18:08:25.103Z,26.70
2022-08-02T18:10:55.810Z,26.40
2022-08-02T18:13:24.546Z,26.30
2022-08-02T18:15:57.319Z,26.20
2022-08-02T18:18:38.268Z,26.10
2022-08-02T18:21:25.944Z,26.00
2022-08-02T18:24:00.327Z,25.90
2022-08-02T18:26:36.913Z,25.80
2022-08-02T18:29:10.321Z,25.80
2022-08-02T18:31:51.203Z,25.70
2022-08-02T18:34:28.479Z,25.60
2022-08-02T18:37:08.094Z,25.50
2022-08-02T18:39:39.735Z,25.50
2022-08-02T18:42:19.799Z,25.30
2022-08-02T18:44:48.319Z,25.30
2022-08-02T18:47:22.783Z,25.30
2022-08-02T18:50:08.934Z,25.20
2022-08-02T18:52:38.184Z,25.10
2022-08-02T18:55:17.663Z,25.00
2022-08-02T18:58:18.106Z,25.00
2022-08-02T19:00:52.172Z,24.90
2022-08-02T19:03:20.778Z,24.80
2022-08-02T19:05:54.046Z,24.70
2022-08-02T19:08:31.895Z,24.70
2022-08-02T19:11:02.519Z,24.60
2022-08-02T19:13:31.170Z,24.60
2022-08-02T19:15:59.759Z,24.60
2022-08-02T19:18:30.100Z,24.50
2022-08-02T19:21:05.577Z,24.50
2022-08-02T19:23:35.421Z,24.50
2022-08-02T19:26:06.078Z,24.40
2022-08-02T19:28:42.165Z,24.40
2022-08-02T19:31:10.645Z,24.30
2022-08-02T19:36:44.326Z,24.30
2022-08-02T19:39:17.987Z,24.20
2022-08-02T19:41:48.646Z,24.20
2022-08-02T19:47:19.401Z,24.20
2022-08-02T19:49:49.472Z,24.10
2022-08-02T19:52:25.055Z,24.00
2022-08-02T19:54:55.621Z,24.00
2022-08-02T19:57:26.789Z,24.00
2022-08-02T19:59:58.512Z,23.90
2022-08-02T20:02:27.239Z,23.90
2022-08-02T20:05:16.502Z,23.90
2022-08-02T20:07:56.152Z,23.90
2022-08-02T20:10:25.138Z,23.80
2022-08-02T20:12:55.579Z,23.70
2022-08-02T20:15:23.879Z,23.70
2022-08-02T20:18:13.558Z,23.60
2022-08-02T20:20:53.607Z,23.60
2022-08-02T20:23:33.772Z,23.40
2022-08-02T20:26:02.807Z,23.40
2022-08-02T20:28:35.806Z,23.30
2022-08-02T20:31:09.226Z,23.30
2022-08-02T20:33:55.465Z,23.20
2022-08-02T20:36:25.800Z,23.20
2022-08-02T20:38:58.149Z,23.10
2022-08-02T20:44:30.747Z,23.00
2022-08-02T20:46:59.570Z,23.00
2022-08-02T20:49:41.182Z,23.00
2022-08-02T20:52:23.670Z,23.00
2022-08-02T21:02:46.486Z,22.90
2022-08-02T21:05:54.551Z,22.90
2022-08-02T21:08:21.586Z,22.80
2022-08-02T21:10:55.378Z,22.80
2022-08-02T21:13:26.080Z,22.70
2022-08-02T21:15:56.986Z,22.70
2022-08-02T21:18:40.644Z,22.60
2022-08-02T21:21:17.615Z,22.60
2022-08-02T21:23:54.788Z,22.60
2022-08-02T21:26:36.997Z,22.60
2022-08-02T21:29:13.546Z,22.60
2022-08-02T21:31:46.074Z,22.60
2022-08-02T21:34:22.438Z,22.60
2022-08-02T21:36:56.317Z,22.60
2022-08-02T21:39:25.016Z,22.60
2022-08-02T21:41:53.564Z,22.60
2022-08-02T21:44:30.455Z,22.60
2022-08-02T21:47:00.550Z,22.50
2022-08-02T21:50:09.152Z,22.50
2022-08-02T21:52:25.891Z,22.50
2022-08-02T21:55:05.766Z,22.40
2022-08-02T21:57:39.584Z,22.40
2022-08-02T22:00:11.874Z,22.40
2022-08-02T22:02:40.177Z,22.30
2022-08-02T22:05:14.222Z,22.30
2022-08-02T22:08:03.310Z,22.30
2022-08-02T22:10:51.677Z,22.20
2022-08-02T22:13:20.184Z,22.20
2022-08-02T22:15:50.119Z,22.20
2022-08-02T22:18:29.285Z,22.10
2022-08-02T22:21:00.373Z,22.10
2022-08-02T22:23:38.942Z,22.10
2022-08-02T22:26:19.011Z,22.00
2022-08-02T22:28:52.882Z,22.00
2022-08-02T22:31:24.842Z,22.00
2022-08-02T22:34:11.842Z,22.00
2022-08-02T22:36:57.877Z,21.90
2022-08-02T22:39:29.306Z,21.90
2022-08-02T22:42:05.843Z,21.90
2022-08-02T22:44:36.378Z,21.80
2022-08-02T22:47:14.850Z,21.80
2022-08-02T22:49:54.429Z,21.80
2022-08-02T22:52:25.562Z,21.90
2022-08-02T22:54:54.960Z,21.80
2022-08-02T22:57:30.677Z,21.80
2022-08-02T22:58:52.375Z,24.30
2022-08-02T22:58:53.028Z,24.20
2022-08-02T22:58:56.095Z,23.00
2022-08-02T23:00:00.194Z,21.80
2022-08-02T23:02:30.010Z,21.80
2022-08-02T23:05:00.933Z,21.80
2022-08-02T23:07:38.833Z,21.70
2022-08-02T23:10:09.702Z,21.70
2022-08-02T23:12:38.028Z,21.70
2022-08-02T23:15:06.843Z,21.70
2022-08-02T23:17:53.683Z,21.70
2022-08-02T23:20:21.898Z,21.60
2022-08-02T23:22:51.469Z,21.60
2022-08-02T23:25:20.119Z,21.50
2022-08-02T23:27:51.231Z,21.50
2022-08-02T23:30:19.935Z,21.50
2022-08-02T23:32:48.089Z,21.50
2022-08-02T23:35:17.234Z,21.40
2022-08-02T23:37:59.786Z,21.40
2022-08-02T23:40:40.453Z,21.40
2022-08-02T23:43:14.422Z,21.30
2022-08-02T23:45:44.295Z,21.30
2022-08-02T23:48:12.515Z,21.30
2022-08-02T23:50:41.757Z,21.30
2022-08-02T23:53:09.904Z,21.30
2022-08-02T23:55:40.769Z,21.30
2022-08-02T23:58:09.356Z,21.30
